createdAt,value
2022-10-22T00:03:19.346Z,82.46
2022-10-22T00:07:21.190Z,82.55
2022-10-22T00:11:23.014Z,82.61
2022-10-22T00:15:24.895Z,82.71
2022-10-22T00:19:27.665Z,82.86
2022-10-22T00:23:29.605Z,83.07
2022-10-22T00:27:31.432Z,83.21
2022-10-22T00:31:33.320Z,83.34
2022-10-22T00:35:35.517Z,83.35
2022-10-22T00:39:37.455Z,83.41
2022-10-22T00:44:02.532Z,83.43
2022-10-22T00:48:08.926Z,83.62
2022-10-22T00:52:11.588Z,83.89
2022-10-22T00:56:13.875Z,83.85
2022-10-22T01:00:16.370Z,83.87
2022-10-22T01:04:19.637Z,83.88
2022-10-22T01:08:36.526Z,83.99
2022-10-22T01:13:02.855Z,84.09
2022-10-22T01:17:09.493Z,84.32
2022-10-22T01:21:32.802Z,84.38
2022-10-22T01:25:35.633Z,84.38
2022-10-22T01:29:43.396Z,84.34
2022-10-22T01:33:48.177Z,84.58
2022-10-22T01:37:57.252Z,84.78
2022-10-22T01:41:59.528Z,84.83
2022-10-22T01:46:04.205Z,84.91
2022-10-22T01:50:36.844Z,84.78
2022-10-22T01:55:01.660Z,84.97
2022-10-22T01:59:24.657Z,85.02
2022-10-22T02:03:36.796Z,85.11
2022-10-22T02:07:48.797Z,85.11
2022-10-22T02:11:52.121Z,85.17
2022-10-22T02:15:56.587Z,85.29
2022-10-22T02:20:10.547Z,85.44
2022-10-22T02:24:12.668Z,85.53
2022-10-22T02:28:36.849Z,85.58
2022-10-22T02:33:03.292Z,85.51
2022-10-22T02:37:06.639Z,85.65
2022-10-22T02:41:09.520Z,85.78
2022-10-22T02:45:11.603Z,86.00
2022-10-22T02:49:13.645Z,86.05
2022-10-22T02:53:15.503Z,86.03
2022-10-22T02:57:17.422Z,85.96
2022-10-22T03:01:19.551Z,86.13
2022-10-22T03:05:21.407Z,86.40
2022-10-22T03:09:24.842Z,86.46
2022-10-22T03:13:27.024Z,86.62
2022-10-22T03:17:28.864Z,86.55
2022-10-22T03:21:41.522Z,86.53
2022-10-22T03:25:46.585Z,86.57
2022-10-22T03:29:51.372Z,86.74
2022-10-22T03:33:53.292Z,86.79
2022-10-22T03:37:55.216Z,86.86
2022-10-22T03:41:57.528Z,86.78
2022-10-22T03:45:59.352Z,86.90
2022-10-22T03:50:01.255Z,87.10
2022-10-22T03:54:03.401Z,87.23
2022-10-22T03:58:05.427Z,87.47
2022-10-22T04:02:07.711Z,87.55
2022-10-22T04:06:12.144Z,87.67
2022-10-22T04:10:14.358Z,87.59
2022-10-22T04:14:16.246Z,87.62
2022-10-22T04:18:23.256Z,87.72
2022-10-22T04:22:25.075Z,87.86
2022-10-22T04:26:27.385Z,87.80
2022-10-22T04:30:29.217Z,87.74
2022-10-22T04:34:31.148Z,87.59
2022-10-22T04:38:33.023Z,87.64
2022-10-22T04:42:34.917Z,87.91
2022-10-22T04:46:36.870Z,87.86
2022-10-22T04:50:38.804Z,87.71
2022-10-22T04:54:44.020Z,87.52
2022-10-22T04:58:48.202Z,87.51
2022-10-22T05:02:50.844Z,87.57
2022-10-22T05:06:52.775Z,87.53
2022-10-22T05:10:55.064Z,87.45
2022-10-22T05:14:56.970Z,87.53
2022-10-22T05:19:00.862Z,87.59
2022-10-22T05:23:02.788Z,87.93
2022-10-22T05:27:08.007Z,88.37
2022-10-22T05:31:12.549Z,88.51
2022-10-22T05:35:14.512Z,88.72
2022-10-22T05:39:16.346Z,88.41
2022-10-22T05:43:18.228Z,88.22
2022-10-22T05:47:20.124Z,88.35
2022-10-22T05:51:22.409Z,88.52
2022-10-22T05:55:24.276Z,88.65
2022-10-22T05:59:26.242Z,88.68
2022-10-22T06:03:29.016Z,88.69
2022-10-22T06:07:30.952Z,88.68
2022-10-22T06:11:35.121Z,88.71
2022-10-22T06:15:37.532Z,88.76
2022-10-22T06:19:39.389Z,88.62
2022-10-22T06:23:42.496Z,88.55
2022-10-22T06:27:49.724Z,88.59
2022-10-22T06:31:51.643Z,88.68
2022-10-22T06:35:53.611Z,88.66
2022-10-22T06:39:55.569Z,88.43
2022-10-22T06:43:58.087Z,88.37
2022-10-22T06:48:00.145Z,88.47
2022-10-22T06:52:02.027Z,88.45
2022-10-22T06:56:08.534Z,88.51
2022-10-22T07:00:10.979Z,88.55
2022-10-22T07:04:12.922Z,88.46
2022-10-22T07:08:14.837Z,88.52
2022-10-22T07:12:17.009Z,88.50
2022-10-22T07:16:19.257Z,88.55
2022-10-22T07:20:21.161Z,88.21
2022-10-22T07:24:23.178Z,88.15
2022-10-22T07:28:25.201Z,88.28
2022-10-22T07:32:27.104Z,88.37
2022-10-22T07:36:29.096Z,88.51
2022-10-22T07:40:31.267Z,88.58
2022-10-22T07:44:33.579Z,88.67
2022-10-22T07:48:36.713Z,88.61
2022-10-22T07:52:38.930Z,88.64
2022-10-22T07:56:41.097Z,88.63
2022-10-22T08:00:43.377Z,88.55
2022-10-22T08:04:45.254Z,88.57
2022-10-22T08:08:47.188Z,88.61
2022-10-22T08:12:49.083Z,88.41
2022-10-22T08:16:50.968Z,88.30
2022-10-22T08:20:53.326Z,88.15
2022-10-22T08:24:55.322Z,88.22
2022-10-22T08:28:57.708Z,88.17
2022-10-22T08:32:59.700Z,88.13
2022-10-22T08:37:21.744Z,87.79
2022-10-22T08:41:29.248Z,87.49
2022-10-22T08:45:50.480Z,87.45
2022-10-22T08:49:56.583Z,87.52
2022-10-22T08:54:16.608Z,87.45
2022-10-22T08:58:19.761Z,87.11
2022-10-22T09:02:45.863Z,86.92
2022-10-22T09:06:50.835Z,86.72
2022-10-22T09:11:21.516Z,86.72
2022-10-22T09:15:23.357Z,86.99
2022-10-22T09:19:31.265Z,86.85
2022-10-22T09:23:44.712Z,86.81
2022-10-22T09:27:47.949Z,86.86
2022-10-22T09:31:49.839Z,86.81
2022-10-22T09:35:55.053Z,86.82
2022-10-22T09:40:03.192Z,86.89
2022-10-22T09:44:06.713Z,86.90
2022-10-22T09:48:18.541Z,86.71
2022-10-22T09:52:28.936Z,86.57
2022-10-22T09:56:37.160Z,86.64
2022-10-22T10:00:40.480Z,86.71
2022-10-22T10:04:53.451Z,86.61
2022-10-22T10:08:56.814Z,86.84
2022-10-22T10:13:38.962Z,86.69
2022-10-22T10:18:26.092Z,86.70
2022-10-22T10:22:53.026Z,86.37
2022-10-22T10:27:00.652Z,86.29
2022-10-22T10:31:21.236Z,86.17
2022-10-22T10:35:38.548Z,85.82
2022-10-22T10:39:49.759Z,85.66
2022-10-22T10:44:09.935Z,85.88
2022-10-22T10:48:27.483Z,86.13
2022-10-22T10:52:42.218Z,86.29
2022-10-22T10:56:55.986Z,86.15
2022-10-22T11:01:22.561Z,85.97
2022-10-22T11:05:45.793Z,86.01
2022-10-22T11:10:00.309Z,86.23
2022-10-22T11:14:11.099Z,86.27
2022-10-22T11:18:20.528Z,86.18
2022-10-22T11:22:31.656Z,86.09
2022-10-22T11:26:46.531Z,85.98
2022-10-22T11:30:57.140Z,85.98
2022-10-22T11:35:02.625Z,86.06
2022-10-22T11:39:04.728Z,86.13
2022-10-22T11:43:09.205Z,86.06
2022-10-22T11:47:23.571Z,86.04
2022-10-22T11:51:35.522Z,86.04
2022-10-22T11:55:47.642Z,86.14
2022-10-22T11:59:52.839Z,86.02
2022-10-22T12:03:57.458Z,85.94
2022-10-22T12:08:20.300Z,85.72
2022-10-22T12:12:22.843Z,85.52
2022-10-22T12:16:37.673Z,85.44
2022-10-22T12:20:53.714Z,85.51
2022-10-22T12:25:00.542Z,85.47
2022-10-22T12:29:09.938Z,85.73
2022-10-22T12:33:22.856Z,85.78
2022-10-22T12:37:24.810Z,85.83
2022-10-22T12:41:34.743Z,85.78
2022-10-22T12:45:37.944Z,85.98
2022-10-22T12:49:44.289Z,85.74
2022-10-22T12:53:50.325Z,85.88
2022-10-22T12:57:52.802Z,85.77
2022-10-22T13:01:56.357Z,85.83
2022-10-22T13:06:31.789Z,85.97
2022-10-22T13:10:36.740Z,86.00
2022-10-22T13:14:38.642Z,86.01
2022-10-22T13:18:41.263Z,86.14
2022-10-22T13:22:59.607Z,86.17
2022-10-22T13:27:01.770Z,86.15
2022-10-22T13:31:19.016Z,86.02
2022-10-22T13:35:25.020Z,85.85
2022-10-22T13:39:26.828Z,85.85
2022-10-22T13:43:28.716Z,85.94
2022-10-22T13:47:30.613Z,86.07
2022-10-22T13:51:34.660Z,85.94
2022-10-22T13:55:36.534Z,85.79
2022-10-22T13:59:38.425Z,85.77
2022-10-22T14:03:40.503Z,85.73
2022-10-22T14:07:42.654Z,85.64
2022-10-22T14:11:44.748Z,85.59
2022-10-22T14:15:49.804Z,85.59
2022-10-22T14:19:51.783Z,85.81
2022-10-22T14:23:54.079Z,85.71
2022-10-22T14:27:56.088Z,85.56
2022-10-22T14:31:57.996Z,85.57
2022-10-22T14:36:00.698Z,85.87
2022-10-22T14:40:02.731Z,86.01
2022-10-22T14:44:04.567Z,86.11
2022-10-22T14:48:06.396Z,86.01
2022-10-22T14:52:11.711Z,85.86
2022-10-22T14:56:22.409Z,85.87
2022-10-22T15:00:24.434Z,85.78
2022-10-22T15:04:27.664Z,85.83
2022-10-22T15:08:30.150Z,85.92
2022-10-22T15:12:32.100Z,86.05
2022-10-22T15:16:34.010Z,86.11
2022-10-22T15:20:35.825Z,86.39
2022-10-22T15:24:38.288Z,86.45
2022-10-22T15:28:41.557Z,86.50
2022-10-22T15:32:43.780Z,86.60
2022-10-22T15:36:46.013Z,86.46
2022-10-22T15:40:47.884Z,86.40
2022-10-22T15:44:57.517Z,86.42
2022-10-22T15:48:59.372Z,86.64
2022-10-22T15:53:01.195Z,86.80
2022-10-22T15:57:07.935Z,87.00
2022-10-22T16:01:12.566Z,87.01
2022-10-22T16:05:14.519Z,86.91
2022-10-22T16:09:19.927Z,86.96
2022-10-22T16:13:23.803Z,86.95
2022-10-22T16:17:25.630Z,87.04
2022-10-22T16:21:27.518Z,86.94
2022-10-22T16:25:29.367Z,86.91
2022-10-22T16:29:31.244Z,86.74
2022-10-22T16:33:41.377Z,86.89
2022-10-22T16:37:46.449Z,87.03
2022-10-22T16:41:48.289Z,87.06
2022-10-22T16:45:50.532Z,86.97
2022-10-22T16:49:52.317Z,87.02
2022-10-22T16:53:55.496Z,87.13
2022-10-22T16:57:57.361Z,87.29
2022-10-22T17:01:59.401Z,87.36
2022-10-22T17:06:03.693Z,87.34
2022-10-22T17:10:08.486Z,87.20
2022-10-22T17:14:10.789Z,87.19
2022-10-22T17:18:12.616Z,87.31
2022-10-22T17:22:17.689Z,87.45
2022-10-22T17:26:22.218Z,87.43
2022-10-22T17:30:27.234Z,87.31
2022-10-22T17:34:32.716Z,87.04
2022-10-22T17:38:35.061Z,87.03
2022-10-22T17:42:36.937Z,87.18
2022-10-22T17:46:39.470Z,87.26
2022-10-22T17:50:45.853Z,87.59
2022-10-22T17:54:52.721Z,87.80
2022-10-22T17:58:55.699Z,87.82
2022-10-22T18:03:00.008Z,87.75
2022-10-22T18:07:01.860Z,88.03
2022-10-22T18:11:09.018Z,88.14
2022-10-22T18:15:11.230Z,88.17
2022-10-22T18:19:19.153Z,88.20
2022-10-22T18:23:20.960Z,88.18
2022-10-22T18:27:22.830Z,88.05
2022-10-22T18:31:26.174Z,88.13
2022-10-22T18:35:31.626Z,88.18
2022-10-22T18:39:34.546Z,88.24
2022-10-22T18:43:36.831Z,88.42
2022-10-22T18:47:41.801Z,88.38
2022-10-22T18:51:44.789Z,88.26
2022-10-22T18:55:46.617Z,88.47
2022-10-22T18:59:48.648Z,88.67
2022-10-22T19:03:52.816Z,88.79
2022-10-22T19:07:54.821Z,88.92
2022-10-22T19:11:56.930Z,88.99
2022-10-22T19:16:03.349Z,89.06
2022-10-22T19:20:05.792Z,89.09
2022-10-22T19:24:07.693Z,89.26
2022-10-22T19:28:09.501Z,89.40
2022-10-22T19:32:12.860Z,89.49
2022-10-22T19:36:18.644Z,89.76
2022-10-22T19:44:30.465Z,89.74
2022-10-22T19:48:32.374Z,89.88
2022-10-22T19:52:34.185Z,89.97
2022-10-22T19:56:37.316Z,90.11
2022-10-22T20:00:39.303Z,90.23
2022-10-22T20:04:41.403Z,90.35
2022-10-22T20:08:44.245Z,90.56
2022-10-22T20:12:46.110Z,90.64
2022-10-22T20:16:48.004Z,90.80
2022-10-22T20:20:50.272Z,90.81
2022-10-22T20:24:52.177Z,90.79
2022-10-22T20:28:55.304Z,90.73
2022-10-22T20:32:58.688Z,90.95
2022-10-22T20:37:01.717Z,90.84
2022-10-22T20:41:06.161Z,90.96
2022-10-22T20:45:08.483Z,91.05
2022-10-22T20:49:14.886Z,91.22
2022-10-22T20:53:16.973Z,91.21
2022-10-22T20:57:19.142Z,91.47
2022-10-22T21:01:23.427Z,91.47
2022-10-22T21:05:25.303Z,91.63
2022-10-22T21:09:27.756Z,91.66
2022-10-22T21:13:34.083Z,91.89
2022-10-22T21:17:35.968Z,92.00
2022-10-22T21:21:37.924Z,92.17
2022-10-22T21:25:42.075Z,92.43
2022-10-22T21:29:45.916Z,92.61
2022-10-22T21:33:49.737Z,92.76
2022-10-22T21:37:51.676Z,92.92
2022-10-22T21:41:53.519Z,93.14
2022-10-22T21:46:08.722Z,93.18
2022-10-22T21:50:10.903Z,93.37
2022-10-22T21:54:12.899Z,93.42
2022-10-22T21:58:14.759Z,93.48
2022-10-22T22:02:16.680Z,93.61
2022-10-22T22:06:22.029Z,93.72
2022-10-22T22:10:26.123Z,94.06
2022-10-22T22:14:27.953Z,93.89
2022-10-22T22:18:30.064Z,93.87
2022-10-22T22:22:31.940Z,93.80
2022-10-22T22:26:34.391Z,93.93
2022-10-22T22:30:36.211Z,94.19
2022-10-22T22:34:38.024Z,94.41
2022-10-22T22:38:40.557Z,94.52
2022-10-22T22:42:42.383Z,94.71
2022-10-22T22:46:44.402Z,94.90
2022-10-22T22:50:46.196Z,94.92
2022-10-22T22:54:48.147Z,95.14
2022-10-22T22:58:50.260Z,95.35
2022-10-22T23:02:55.445Z,95.51
2022-10-22T23:06:57.456Z,95.88
2022-10-22T23:11:15.616Z,95.82
2022-10-22T23:15:17.507Z,96.35
2022-10-22T23:19:21.916Z,96.65
2022-10-22T23:23:23.729Z,96.71
2022-10-22T23:27:25.563Z,96.70
2022-10-22T23:31:27.736Z,97.13
2022-10-22T23:35:29.710Z,97.45
2022-10-22T23:39:31.586Z,97.55
2022-10-22T23:43:35.635Z,97.84
2022-10-22T23:47:37.489Z,97.65
2022-10-22T23:51:40.352Z,97.80
2022-10-22T23:55:43.652Z,98.05
2022-10-22T23:59:45.481Z,98.27
